createdAt,value
2023-03-31T00:00:26.301Z,2.10
2023-03-31T00:02:30.122Z,2.07
2023-03-31T00:04:33.776Z,2.15
2023-03-31T00:06:39.094Z,2.33
2023-03-31T00:08:43.980Z,2.42
2023-03-31T00:10:48.568Z,1.83
2023-03-31T00:12:52.001Z,2.00
2023-03-31T00:14:55.735Z,2.10
2023-03-31T00:17:04.722Z,2.40
2023-03-31T00:19:10.360Z,2.37
2023-03-31T00:21:24.775Z,2.13
2023-03-31T00:23:29.160Z,2.08
2023-03-31T00:25:34.265Z,2.22
2023-03-31T00:27:38.105Z,2.00
2023-03-31T00:29:43.611Z,2.47
2023-03-31T00:31:47.237Z,2.85
2023-03-31T00:33:50.798Z,1.90
2023-03-31T00:35:55.607Z,2.13
2023-03-31T00:38:00.140Z,2.22
2023-03-31T00:40:07.420Z,2.10
2023-03-31T00:42:14.139Z,2.20
2023-03-31T00:44:24.517Z,2.60
2023-03-31T00:46:32.218Z,1.80
2023-03-31T00:48:36.532Z,2.17
2023-03-31T00:50:49.473Z,2.17
2023-03-31T00:52:58.048Z,2.00
2023-03-31T00:55:03.984Z,1.80
2023-03-31T00:57:08.019Z,2.07
2023-03-31T00:59:14.462Z,2.07
2023-03-31T01:01:19.341Z,1.80
2023-03-31T01:03:24.164Z,2.10
2023-03-31T01:05:29.235Z,2.00
2023-03-31T01:07:37.765Z,2.30
2023-03-31T01:09:42.288Z,2.27
2023-03-31T01:11:46.812Z,2.10
2023-03-31T01:13:51.887Z,2.43
2023-03-31T01:15:56.795Z,1.80
2023-03-31T01:18:01.089Z,1.60
2023-03-31T01:20:13.896Z,1.70
2023-03-31T01:22:39.078Z,2.30
2023-03-31T01:25:11.480Z,1.93
2023-03-31T01:27:22.828Z,1.70
2023-03-31T01:29:42.149Z,1.88
2023-03-31T01:32:05.968Z,1.83
2023-03-31T01:34:26.996Z,2.25
2023-03-31T01:36:52.404Z,2.72
2023-03-31T01:39:04.000Z,2.58
2023-03-31T01:41:18.766Z,2.60
2023-03-31T01:43:26.128Z,2.20
2023-03-31T01:45:33.342Z,2.22
2023-03-31T01:47:40.917Z,2.25
2023-03-31T01:49:47.875Z,3.00
2023-03-31T01:51:55.111Z,3.22
2023-03-31T01:54:03.440Z,2.03
2023-03-31T01:56:09.835Z,2.10
2023-03-31T01:58:17.730Z,2.40
2023-03-31T02:00:22.426Z,2.53
2023-03-31T02:02:27.801Z,2.63
2023-03-31T02:04:33.570Z,2.28
2023-03-31T02:06:39.342Z,2.00
2023-03-31T02:08:45.629Z,2.10
2023-03-31T02:10:50.064Z,2.67
2023-03-31T02:12:53.926Z,1.98
2023-03-31T02:14:59.819Z,2.20
2023-03-31T02:17:04.088Z,4.00
2023-03-31T02:19:08.158Z,1.63
2023-03-31T02:21:12.534Z,1.60
2023-03-31T02:23:17.999Z,2.35
2023-03-31T02:25:24.209Z,1.95
2023-03-31T02:27:28.801Z,2.65
2023-03-31T02:29:32.431Z,2.30
2023-03-31T02:31:40.625Z,3.88
2023-03-31T02:33:44.162Z,3.72
2023-03-31T02:35:47.785Z,2.80
2023-03-31T02:37:51.586Z,3.50
2023-03-31T02:39:55.984Z,2.92
2023-03-31T02:41:59.519Z,3.78
2023-03-31T02:44:03.591Z,3.90
2023-03-31T02:46:07.464Z,3.20
2023-03-31T02:48:13.928Z,3.38
2023-03-31T02:50:17.848Z,2.90
2023-03-31T02:52:33.579Z,3.13
2023-03-31T02:54:51.401Z,3.60
2023-03-31T02:57:06.466Z,3.33
2023-03-31T02:59:26.486Z,3.45
2023-03-31T03:01:37.176Z,3.15
2023-03-31T03:03:46.549Z,4.15
2023-03-31T03:05:55.071Z,3.40
2023-03-31T03:08:00.564Z,3.17
2023-03-31T03:10:06.964Z,3.20
2023-03-31T03:12:13.308Z,3.33
2023-03-31T03:14:21.487Z,4.10
2023-03-31T03:16:27.652Z,2.50
2023-03-31T03:18:31.339Z,3.50
2023-03-31T03:20:36.525Z,3.70
2023-03-31T03:22:40.671Z,3.45
2023-03-31T03:24:44.669Z,4.22
2023-03-31T03:26:48.435Z,3.85
2023-03-31T03:28:51.993Z,2.72
2023-03-31T03:30:55.635Z,3.83
2023-03-31T03:32:59.336Z,4.55
2023-03-31T03:35:02.842Z,3.85
2023-03-31T03:37:07.848Z,4.22
2023-03-31T03:39:11.713Z,3.65
2023-03-31T03:41:15.586Z,2.88
2023-03-31T03:43:19.190Z,3.33
2023-03-31T03:45:22.714Z,3.58
2023-03-31T03:47:26.660Z,3.47
2023-03-31T03:49:30.339Z,3.53
2023-03-31T03:51:34.250Z,3.45
2023-03-31T03:53:39.280Z,3.08
2023-03-31T03:55:42.968Z,2.92
2023-03-31T03:57:46.578Z,3.25
2023-03-31T03:59:50.314Z,3.85
2023-03-31T04:01:53.883Z,3.22
2023-03-31T04:03:57.783Z,3.40
2023-03-31T04:06:01.306Z,3.50
2023-03-31T04:08:06.289Z,3.13
2023-03-31T04:10:11.874Z,3.15
2023-03-31T04:12:15.448Z,3.30
2023-03-31T04:14:19.040Z,3.33
2023-03-31T04:16:23.138Z,3.35
2023-03-31T04:18:26.832Z,3.33
2023-03-31T04:20:31.528Z,3.28
2023-03-31T04:22:40.825Z,3.05
2023-03-31T04:24:46.682Z,3.30
2023-03-31T04:26:51.867Z,3.00
2023-03-31T04:28:58.657Z,2.88
2023-03-31T04:31:03.722Z,3.67
2023-03-31T04:33:07.980Z,3.55
2023-03-31T04:35:15.408Z,4.07
2023-03-31T04:37:19.109Z,4.32
2023-03-31T04:39:27.138Z,4.53
2023-03-31T04:41:30.679Z,4.40
2023-03-31T04:43:35.831Z,4.20
2023-03-31T04:45:39.417Z,3.70
2023-03-31T04:47:43.682Z,4.50
2023-03-31T04:49:47.444Z,4.68
2023-03-31T04:51:51.236Z,4.32
2023-03-31T04:53:54.845Z,4.70
2023-03-31T04:55:58.710Z,4.70
2023-03-31T04:58:02.416Z,4.47
2023-03-31T05:00:08.414Z,3.80
2023-03-31T05:02:12.270Z,4.40
2023-03-31T05:04:15.907Z,6.63
2023-03-31T05:06:19.582Z,5.47
2023-03-31T05:08:23.086Z,7.80
2023-03-31T05:10:26.987Z,7.53
2023-03-31T05:12:30.676Z,7.28
2023-03-31T05:14:34.183Z,7.10
2023-03-31T05:16:39.325Z,8.02
2023-03-31T05:18:43.297Z,8.10
2023-03-31T05:20:47.162Z,6.97
2023-03-31T05:22:51.138Z,7.00
2023-03-31T05:24:54.816Z,7.20
2023-03-31T05:26:58.608Z,8.40
2023-03-31T05:29:02.357Z,7.97
2023-03-31T05:31:06.661Z,8.52
2023-03-31T05:33:11.655Z,8.48
2023-03-31T05:35:15.406Z,7.32
2023-03-31T05:37:19.048Z,6.65
2023-03-31T05:39:22.698Z,8.68
2023-03-31T05:41:26.574Z,7.10
2023-03-31T05:43:30.354Z,7.22
2023-03-31T05:45:33.861Z,7.65
2023-03-31T05:47:37.740Z,7.00
2023-03-31T05:49:42.689Z,7.60
2023-03-31T05:51:47.104Z,7.43
2023-03-31T05:53:50.645Z,7.25
2023-03-31T05:55:58.527Z,13.02
2023-03-31T05:58:02.079Z,16.15
2023-03-31T06:00:09.319Z,13.13
2023-03-31T06:02:14.542Z,11.30
2023-03-31T06:04:18.267Z,9.57
2023-03-31T06:06:23.449Z,7.22
2023-03-31T06:08:27.549Z,8.35
2023-03-31T06:10:31.459Z,7.13
2023-03-31T06:12:35.303Z,6.97
2023-03-31T06:14:39.068Z,7.13
2023-03-31T06:16:42.861Z,6.75
2023-03-31T06:18:46.790Z,6.53
2023-03-31T06:20:50.467Z,6.55
2023-03-31T06:22:55.467Z,6.40
2023-03-31T06:24:59.193Z,5.80
2023-03-31T06:27:04.021Z,5.45
2023-03-31T06:29:07.940Z,6.18
2023-03-31T06:31:12.953Z,6.85
2023-03-31T06:33:16.700Z,9.48
2023-03-31T06:35:20.267Z,9.63
2023-03-31T06:37:23.898Z,7.45
2023-03-31T06:39:29.101Z,6.10
2023-03-31T06:41:32.885Z,6.13
2023-03-31T06:43:36.816Z,6.20
2023-03-31T06:45:40.427Z,5.40
2023-03-31T06:47:44.007Z,3.53
2023-03-31T06:49:48.005Z,3.60
2023-03-31T06:51:52.615Z,3.80
2023-03-31T06:53:56.235Z,4.03
2023-03-31T06:56:01.341Z,3.47
2023-03-31T06:58:04.833Z,3.40
2023-03-31T07:00:09.063Z,3.90
2023-03-31T07:02:12.905Z,3.23
2023-03-31T07:04:16.468Z,3.17
2023-03-31T07:06:20.044Z,3.20
2023-03-31T07:08:23.746Z,2.60
2023-03-31T07:10:28.208Z,2.90
2023-03-31T07:12:34.725Z,2.70
2023-03-31T07:14:38.647Z,2.37
2023-03-31T07:16:42.284Z,3.27
2023-03-31T07:18:46.052Z,2.63
2023-03-31T07:20:50.789Z,2.17
2023-03-31T07:22:54.445Z,2.47
2023-03-31T07:24:58.172Z,3.10
2023-03-31T07:27:01.693Z,1.97
2023-03-31T07:29:06.982Z,2.40
2023-03-31T07:31:14.113Z,2.50
2023-03-31T07:33:17.864Z,2.90
2023-03-31T07:35:21.770Z,2.53
2023-03-31T07:37:25.696Z,2.70
2023-03-31T07:39:29.390Z,3.43
2023-03-31T07:41:32.925Z,3.00
2023-03-31T07:43:36.592Z,2.90
2023-03-31T07:45:42.026Z,3.40
2023-03-31T07:47:46.503Z,4.30
2023-03-31T07:49:50.337Z,4.10
2023-03-31T07:51:53.816Z,3.10
2023-03-31T07:53:57.546Z,3.20
2023-03-31T07:56:01.545Z,2.90
2023-03-31T07:58:05.207Z,3.00
2023-03-31T08:00:12.483Z,4.10
2023-03-31T08:02:19.079Z,2.90
2023-03-31T08:04:22.706Z,2.37
2023-03-31T08:06:27.194Z,3.17
2023-03-31T08:08:30.791Z,3.43
2023-03-31T08:10:34.297Z,3.90
2023-03-31T08:12:37.890Z,3.60
2023-03-31T08:14:41.862Z,3.97
2023-03-31T08:16:45.497Z,3.13
2023-03-31T08:18:50.642Z,3.17
2023-03-31T08:20:54.214Z,3.77
2023-03-31T08:22:58.030Z,3.97
2023-03-31T08:25:01.702Z,3.63
2023-03-31T08:29:15.072Z,2.70
2023-03-31T08:31:19.253Z,3.27
2023-03-31T08:33:22.905Z,2.60
2023-03-31T08:35:28.247Z,2.90
2023-03-31T08:37:32.391Z,2.20
2023-03-31T08:39:37.550Z,2.40
2023-03-31T08:41:49.371Z,2.53
2023-03-31T08:43:53.834Z,2.67
2023-03-31T08:45:57.481Z,2.53
2023-03-31T08:48:04.639Z,1.97
2023-03-31T08:50:14.150Z,2.30
2023-03-31T08:52:21.461Z,2.77
2023-03-31T08:54:31.503Z,2.27
2023-03-31T08:56:37.954Z,2.27
2023-03-31T08:58:42.696Z,2.30
2023-03-31T09:00:48.856Z,1.90
2023-03-31T09:02:57.738Z,2.93
2023-03-31T09:05:16.428Z,2.53
2023-03-31T09:07:26.412Z,1.77
2023-03-31T09:09:38.802Z,2.23
2023-03-31T09:11:46.989Z,1.97
2023-03-31T09:14:05.947Z,1.63
2023-03-31T09:16:16.464Z,2.17
2023-03-31T09:18:22.408Z,1.83
2023-03-31T09:20:30.567Z,2.20
2023-03-31T09:22:37.143Z,1.57
2023-03-31T09:24:46.861Z,1.10
2023-03-31T09:26:54.270Z,1.63
2023-03-31T09:28:59.800Z,1.10
2023-03-31T09:31:05.283Z,1.20
2023-03-31T09:33:12.572Z,0.90
2023-03-31T09:35:18.959Z,1.20
2023-03-31T09:37:22.678Z,0.93
2023-03-31T09:39:27.861Z,1.10
2023-03-31T09:41:33.052Z,0.77
2023-03-31T09:43:38.667Z,1.07
2023-03-31T09:45:42.315Z,1.03
2023-03-31T09:47:47.040Z,1.53
2023-03-31T09:49:54.037Z,1.07
2023-03-31T09:52:04.012Z,1.33
2023-03-31T09:54:12.344Z,1.50
2023-03-31T09:56:33.395Z,1.27
2023-03-31T09:58:42.802Z,1.00
2023-03-31T10:00:58.441Z,1.00
2023-03-31T10:03:07.868Z,2.13
2023-03-31T10:05:21.369Z,1.30
2023-03-31T10:07:25.858Z,1.30
2023-03-31T10:09:33.672Z,1.50
2023-03-31T10:11:39.084Z,0.93
2023-03-31T10:13:46.063Z,1.40
2023-03-31T10:15:49.712Z,1.60
2023-03-31T10:17:55.275Z,1.20
2023-03-31T10:20:00.277Z,1.47
2023-03-31T10:22:04.954Z,1.37
2023-03-31T10:24:10.351Z,1.47
2023-03-31T10:26:16.266Z,1.57
2023-03-31T10:28:22.635Z,1.80
2023-03-31T10:30:28.665Z,1.30
2023-03-31T10:32:33.652Z,1.43
2023-03-31T10:34:40.829Z,1.50
2023-03-31T10:36:46.782Z,1.00
2023-03-31T10:38:50.728Z,1.03
2023-03-31T10:40:55.145Z,1.10
2023-03-31T10:43:03.302Z,1.20
2023-03-31T10:45:26.100Z,1.50
2023-03-31T10:47:37.537Z,1.87
2023-03-31T10:49:41.995Z,1.40
2023-03-31T10:51:50.945Z,1.33
2023-03-31T10:53:55.222Z,1.60
2023-03-31T10:56:03.793Z,1.20
2023-03-31T10:58:12.100Z,1.50
2023-03-31T11:00:21.950Z,1.10
2023-03-31T11:02:39.279Z,1.43
2023-03-31T11:04:57.870Z,1.60
2023-03-31T11:07:06.616Z,1.23
2023-03-31T11:09:18.179Z,1.70
2023-03-31T11:11:27.112Z,1.47
2023-03-31T11:13:34.024Z,1.57
2023-03-31T11:15:42.867Z,1.23
2023-03-31T11:17:55.156Z,1.50
2023-03-31T11:20:01.561Z,1.03
2023-03-31T11:22:09.979Z,1.37
2023-03-31T11:24:19.825Z,1.40
2023-03-31T11:26:31.020Z,1.30
2023-03-31T11:28:39.682Z,1.73
2023-03-31T11:30:48.604Z,1.10
2023-03-31T11:32:57.705Z,1.20
2023-03-31T11:35:09.733Z,1.30
2023-03-31T11:37:31.946Z,1.03
2023-03-31T11:39:43.141Z,1.57
2023-03-31T11:41:49.529Z,1.30
2023-03-31T11:43:55.075Z,0.93
2023-03-31T11:46:02.677Z,0.97
2023-03-31T11:48:09.338Z,1.40
2023-03-31T11:50:14.487Z,1.40
2023-03-31T11:52:19.593Z,1.23
2023-03-31T11:54:26.975Z,1.23
2023-03-31T11:56:35.588Z,1.10
2023-03-31T11:58:41.082Z,1.30
2023-03-31T12:00:46.519Z,0.93
2023-03-31T12:02:54.825Z,1.00
2023-03-31T12:04:58.885Z,1.20
2023-03-31T12:07:05.010Z,1.37
2023-03-31T12:09:12.844Z,0.70
2023-03-31T12:11:21.762Z,1.00
2023-03-31T12:13:31.234Z,1.40
2023-03-31T12:15:36.662Z,1.40
2023-03-31T12:17:42.246Z,1.00
2023-03-31T12:19:50.089Z,1.07
2023-03-31T12:21:55.931Z,1.50
2023-03-31T12:23:59.726Z,1.07
2023-03-31T12:26:07.418Z,1.27
2023-03-31T12:28:12.461Z,1.13
2023-03-31T12:30:18.415Z,0.90
2023-03-31T12:32:24.270Z,1.40
2023-03-31T12:34:28.984Z,1.27
2023-03-31T12:36:52.939Z,1.20
2023-03-31T12:39:03.954Z,1.10
2023-03-31T12:41:12.025Z,1.07
2023-03-31T12:43:23.090Z,1.40
2023-03-31T12:45:29.172Z,1.90
2023-03-31T12:47:43.336Z,1.37
2023-03-31T12:49:54.589Z,1.30
2023-03-31T12:52:02.709Z,1.30
2023-03-31T12:54:16.140Z,1.67
2023-03-31T12:56:19.823Z,1.27
2023-03-31T12:58:39.785Z,1.60
2023-03-31T13:01:05.333Z,2.00
2023-03-31T13:03:28.592Z,1.50
2023-03-31T13:05:48.857Z,1.37
2023-03-31T13:07:54.029Z,1.37
2023-03-31T13:10:01.154Z,1.40
2023-03-31T13:12:09.096Z,1.10
2023-03-31T13:14:15.834Z,1.50
2023-03-31T13:16:25.256Z,1.70
2023-03-31T13:18:29.468Z,1.20
2023-03-31T13:20:36.069Z,1.40
2023-03-31T13:22:42.547Z,1.53
2023-03-31T13:24:47.626Z,1.20
2023-03-31T13:26:52.747Z,1.40
2023-03-31T13:29:11.933Z,1.60
2023-03-31T13:31:16.273Z,1.83
2023-03-31T13:33:23.054Z,1.57
2023-03-31T13:35:32.556Z,2.07
2023-03-31T13:38:00.003Z,1.23
2023-03-31T13:40:16.430Z,2.20
2023-03-31T13:42:28.026Z,1.60
2023-03-31T13:44:46.528Z,1.70
2023-03-31T13:46:56.338Z,1.93
2023-03-31T13:49:02.687Z,2.40
2023-03-31T13:51:17.693Z,1.30
2023-03-31T13:53:31.638Z,1.70
2023-03-31T13:55:54.806Z,1.43
2023-03-31T13:58:33.531Z,1.63
2023-03-31T14:00:49.010Z,2.20
2023-03-31T14:03:08.807Z,1.40
2023-03-31T14:05:22.930Z,1.83
2023-03-31T14:07:30.907Z,1.80
2023-03-31T14:09:36.157Z,2.13
2023-03-31T14:11:42.438Z,1.20
2023-03-31T14:13:46.135Z,2.00
2023-03-31T14:15:51.379Z,1.40
2023-03-31T14:17:55.999Z,2.00
2023-03-31T14:20:10.548Z,2.40
2023-03-31T14:22:19.132Z,1.73
2023-03-31T14:24:26.535Z,1.67
2023-03-31T14:26:40.630Z,1.67
2023-03-31T14:29:01.364Z,1.30
2023-03-31T14:31:13.795Z,2.27
2023-03-31T14:33:25.154Z,1.27
2023-03-31T14:35:33.876Z,1.80
2023-03-31T14:37:37.606Z,1.87
2023-03-31T14:39:43.947Z,1.90
2023-03-31T14:41:49.670Z,1.77
2023-03-31T14:43:54.811Z,1.60
2023-03-31T14:46:01.588Z,1.40
2023-03-31T14:48:12.021Z,1.90
2023-03-31T14:50:17.067Z,1.60
2023-03-31T14:52:23.938Z,1.70
2023-03-31T14:54:27.485Z,1.70
2023-03-31T14:56:34.861Z,1.80
2023-03-31T14:58:39.544Z,1.50
2023-03-31T15:00:43.179Z,1.80
2023-03-31T15:02:47.418Z,1.93
2023-03-31T15:04:53.118Z,2.03
2023-03-31T15:07:00.326Z,1.60
2023-03-31T15:09:04.900Z,1.37
2023-03-31T15:11:12.975Z,1.60
2023-03-31T15:13:20.720Z,1.90
2023-03-31T15:15:24.554Z,1.40
2023-03-31T15:17:29.996Z,1.70
2023-03-31T15:19:36.101Z,1.77
2023-03-31T15:21:41.543Z,1.43
2023-03-31T15:23:45.137Z,1.60
2023-03-31T15:25:49.087Z,1.93
2023-03-31T15:27:55.426Z,1.53
2023-03-31T15:30:01.980Z,1.40
2023-03-31T15:34:14.818Z,1.47
2023-03-31T15:36:18.635Z,1.60
2023-03-31T15:38:25.275Z,1.70
2023-03-31T15:40:29.471Z,2.50
2023-03-31T15:42:35.821Z,1.73
2023-03-31T15:44:41.362Z,1.40
2023-03-31T15:46:58.404Z,2.00
2023-03-31T15:49:02.192Z,1.67
2023-03-31T15:51:08.056Z,1.53
2023-03-31T15:53:31.219Z,1.33
2023-03-31T15:57:47.106Z,1.77
2023-03-31T15:59:55.885Z,1.20
2023-03-31T16:02:01.337Z,1.70
2023-03-31T16:04:08.753Z,2.20
2023-03-31T16:06:17.215Z,1.40
2023-03-31T16:08:24.193Z,1.63
2023-03-31T16:10:28.150Z,2.33
2023-03-31T16:12:34.392Z,1.70
2023-03-31T16:14:40.163Z,1.60
2023-03-31T16:16:48.165Z,1.77
2023-03-31T16:18:52.698Z,1.70
2023-03-31T16:20:57.500Z,2.03
2023-03-31T16:23:02.050Z,1.60
2023-03-31T16:25:10.660Z,2.10
2023-03-31T16:27:14.502Z,2.27
2023-03-31T16:29:23.257Z,1.53
2023-03-31T16:31:31.356Z,2.20
2023-03-31T16:33:55.322Z,1.40
2023-03-31T16:35:59.372Z,2.23
2023-03-31T16:38:03.071Z,2.03
2023-03-31T16:40:07.362Z,1.80
2023-03-31T16:42:10.990Z,1.40
2023-03-31T16:44:14.579Z,1.37
2023-03-31T16:46:20.027Z,2.03
2023-03-31T16:48:24.226Z,1.80
2023-03-31T16:50:27.822Z,1.33
2023-03-31T16:52:31.625Z,1.60
2023-03-31T16:54:35.189Z,0.93
2023-03-31T16:56:39.176Z,1.17
2023-03-31T16:58:43.752Z,0.90
2023-03-31T17:00:47.961Z,0.93
2023-03-31T17:02:53.228Z,1.63
2023-03-31T17:05:06.105Z,1.13
2023-03-31T17:07:15.971Z,1.30
2023-03-31T17:09:19.749Z,1.13
2023-03-31T17:11:23.814Z,1.50
2023-03-31T17:13:28.446Z,1.10
2023-03-31T17:15:32.276Z,1.10
2023-03-31T17:17:36.997Z,2.20
2023-03-31T17:19:42.242Z,1.17
2023-03-31T17:21:45.824Z,1.70
2023-03-31T17:23:49.900Z,1.45
2023-03-31T17:25:54.964Z,1.23
2023-03-31T17:28:00.705Z,0.90
2023-03-31T17:32:09.997Z,1.63
2023-03-31T17:34:14.048Z,1.58
2023-03-31T17:36:19.628Z,1.10
2023-03-31T17:38:23.213Z,1.25
2023-03-31T17:40:28.105Z,0.60
2023-03-31T17:42:32.047Z,1.33
2023-03-31T17:44:35.933Z,0.70
2023-03-31T17:46:39.682Z,0.70
2023-03-31T17:48:43.769Z,0.80
2023-03-31T17:50:47.417Z,0.68
2023-03-31T17:52:52.416Z,0.90
2023-03-31T17:54:57.352Z,0.85
2023-03-31T17:57:01.500Z,0.93
2023-03-31T17:59:05.242Z,0.85
2023-03-31T18:01:09.558Z,0.73
2023-03-31T18:03:13.313Z,0.70
2023-03-31T18:05:18.552Z,0.80
2023-03-31T18:07:26.200Z,0.70
2023-03-31T18:09:31.463Z,0.50
2023-03-31T18:11:35.167Z,0.93
2023-03-31T18:13:38.981Z,0.70
2023-03-31T18:15:49.224Z,1.15
2023-03-31T18:17:53.573Z,1.20
2023-03-31T18:19:57.693Z,1.43
2023-03-31T18:22:01.532Z,2.20
2023-03-31T18:24:05.197Z,1.60
2023-03-31T18:26:11.114Z,1.57
2023-03-31T18:28:14.980Z,1.30
2023-03-31T18:30:22.610Z,5.73
2023-03-31T18:34:30.886Z,5.83
2023-03-31T18:36:35.769Z,4.33
2023-03-31T18:38:39.687Z,1.77
2023-03-31T18:40:48.991Z,3.07
2023-03-31T18:42:53.948Z,3.33
2023-03-31T18:44:57.730Z,1.83
2023-03-31T18:47:01.881Z,0.90
2023-03-31T18:49:06.146Z,1.90
2023-03-31T18:51:09.866Z,2.07
2023-03-31T18:53:15.325Z,1.73
2023-03-31T18:55:19.004Z,3.40
2023-03-31T18:57:22.794Z,3.00
2023-03-31T18:59:28.517Z,1.83
2023-03-31T19:01:35.145Z,1.70
2023-03-31T19:03:39.295Z,2.33
2023-03-31T19:05:42.861Z,1.80
2023-03-31T19:07:46.466Z,2.00
2023-03-31T19:09:50.141Z,2.00
2023-03-31T19:11:53.900Z,1.60
2023-03-31T19:13:57.480Z,3.30
2023-03-31T19:16:02.534Z,2.90
2023-03-31T19:18:06.482Z,2.47
2023-03-31T19:20:16.389Z,2.67
2023-03-31T19:22:20.027Z,3.30
2023-03-31T19:24:24.219Z,3.80
2023-03-31T19:26:28.449Z,5.10
2023-03-31T19:28:33.470Z,5.10
2023-03-31T19:30:37.058Z,5.55
2023-03-31T19:32:42.864Z,7.38
2023-03-31T19:34:48.597Z,8.10
2023-03-31T19:36:52.263Z,7.30
2023-03-31T19:38:55.748Z,6.22
2023-03-31T19:41:00.154Z,4.20
2023-03-31T19:43:03.766Z,4.03
2023-03-31T19:45:08.297Z,3.40
2023-03-31T19:47:12.383Z,3.23
2023-03-31T19:49:18.081Z,2.90
2023-03-31T19:51:21.958Z,3.17
2023-03-31T19:53:25.959Z,4.15
2023-03-31T19:55:29.891Z,4.68
2023-03-31T19:57:33.786Z,7.60
2023-03-31T19:59:37.531Z,7.20
2023-03-31T20:01:41.530Z,5.97
2023-03-31T20:03:45.972Z,4.22
2023-03-31T20:05:52.065Z,2.72
2023-03-31T20:07:55.640Z,2.58
2023-03-31T20:09:59.462Z,2.70
2023-03-31T20:12:03.076Z,2.87
2023-03-31T20:14:07.644Z,2.78
2023-03-31T20:16:12.808Z,2.50
2023-03-31T20:18:16.680Z,2.03
2023-03-31T20:20:20.295Z,2.05
2023-03-31T20:22:25.204Z,2.00
2023-03-31T20:24:29.730Z,3.50
2023-03-31T20:26:33.833Z,2.83
2023-03-31T20:28:40.614Z,2.92
2023-03-31T20:30:44.309Z,3.05
2023-03-31T20:32:47.932Z,2.40
2023-03-31T20:34:51.798Z,2.22
2023-03-31T20:36:55.394Z,1.80
2023-03-31T20:39:03.041Z,1.77
2023-03-31T20:41:06.641Z,1.63
2023-03-31T20:43:10.317Z,1.42
2023-03-31T20:45:14.002Z,1.63
2023-03-31T20:47:17.686Z,1.55
2023-03-31T20:49:21.594Z,1.53
2023-03-31T20:51:27.744Z,4.15
2023-03-31T20:53:31.334Z,5.22
2023-03-31T20:55:36.829Z,4.30
2023-03-31T20:57:40.486Z,2.28
2023-03-31T20:59:44.075Z,2.55
2023-03-31T21:01:49.712Z,3.13
2023-03-31T21:03:54.972Z,2.85
2023-03-31T21:05:58.807Z,2.92
2023-03-31T21:08:02.776Z,2.42
2023-03-31T21:10:06.777Z,2.45
2023-03-31T21:12:12.019Z,4.00
2023-03-31T21:14:16.555Z,4.70
2023-03-31T21:16:20.537Z,3.78
2023-03-31T21:18:24.545Z,3.63
2023-03-31T21:20:28.300Z,2.45
2023-03-31T21:22:32.356Z,2.53
2023-03-31T21:24:36.787Z,2.30
2023-03-31T21:26:40.587Z,2.70
2023-03-31T21:28:46.336Z,2.60
2023-03-31T21:30:54.041Z,2.67
2023-03-31T21:32:57.739Z,2.47
2023-03-31T21:35:02.030Z,3.08
2023-03-31T21:37:07.069Z,3.13
2023-03-31T21:39:11.687Z,4.22
2023-03-31T21:41:16.737Z,3.05
2023-03-31T21:43:21.234Z,2.20
2023-03-31T21:45:27.190Z,1.98
2023-03-31T21:47:31.318Z,1.80
2023-03-31T21:49:35.199Z,2.03
2023-03-31T21:51:38.817Z,1.73
2023-03-31T21:53:42.518Z,2.63
2023-03-31T21:55:46.319Z,2.83
2023-03-31T21:57:50.112Z,3.25
2023-03-31T21:59:53.716Z,3.80
2023-03-31T22:01:59.215Z,4.90
2023-03-31T22:04:02.940Z,7.43
2023-03-31T22:06:08.426Z,9.60
2023-03-31T22:08:12.076Z,9.00
2023-03-31T22:10:16.191Z,10.32
2023-03-31T22:12:20.216Z,5.78
2023-03-31T22:14:23.793Z,6.90
2023-03-31T22:16:27.757Z,5.55
2023-03-31T22:18:32.854Z,5.93
2023-03-31T22:20:36.546Z,4.68
2023-03-31T22:22:40.146Z,4.70
2023-03-31T22:24:43.860Z,6.10
2023-03-31T22:26:47.508Z,5.70
2023-03-31T22:28:51.107Z,5.43
2023-03-31T22:30:54.636Z,3.75
2023-03-31T22:32:58.195Z,4.15
2023-03-31T22:35:03.451Z,4.25
2023-03-31T22:37:07.255Z,4.10
2023-03-31T22:39:11.063Z,4.30
2023-03-31T22:41:14.762Z,3.80
2023-03-31T22:43:19.066Z,4.20
2023-03-31T22:45:22.644Z,4.70
2023-03-31T22:47:26.762Z,4.25
2023-03-31T22:49:30.481Z,4.03
2023-03-31T22:51:35.784Z,3.95
2023-03-31T22:53:39.630Z,3.70
2023-03-31T22:55:44.164Z,3.38
2023-03-31T22:57:58.269Z,3.92
2023-03-31T23:00:02.201Z,3.30
2023-03-31T23:02:05.851Z,3.90
2023-03-31T23:04:09.671Z,3.25
2023-03-31T23:06:14.398Z,3.45
2023-03-31T23:08:19.584Z,3.95
2023-03-31T23:10:23.306Z,3.85
2023-03-31T23:12:27.156Z,4.03
2023-03-31T23:14:34.915Z,3.20
2023-03-31T23:16:38.617Z,3.10
2023-03-31T23:18:47.036Z,3.60
2023-03-31T23:20:50.745Z,3.90
2023-03-31T23:22:54.264Z,3.63
2023-03-31T23:24:59.557Z,3.97
2023-03-31T23:27:03.116Z,3.63
2023-03-31T23:29:06.742Z,3.60
2023-03-31T23:31:10.753Z,3.45
2023-03-31T23:33:14.325Z,3.78
2023-03-31T23:35:18.077Z,3.80
2023-03-31T23:37:21.653Z,3.30
2023-03-31T23:39:25.269Z,3.78
2023-03-31T23:41:30.279Z,3.50
2023-03-31T23:43:33.973Z,3.38
2023-03-31T23:45:37.632Z,4.00
2023-03-31T23:47:42.673Z,3.22
2023-03-31T23:49:46.740Z,3.78
2023-03-31T23:51:50.850Z,4.53
2023-03-31T23:53:54.640Z,3.40
2023-03-31T23:55:58.990Z,3.53
2023-03-31T23:58:04.199Z,3.00
